Time;durP1;ratioP1;P1;durP2;ratioP2;P2;SDS_P1;SDS_P2;PMS_P1;PMS_P2;Temp;Humidity;BMP_temperature;BMP_pressure;BME280_temperature;BME280_humidity;BME280_pressure;Samples;Min_cycle;Max_cycle;Signal;HPM_P1;HPM_P2
2021/07/02 00:00:54;;;;;;;7.53;4.38;;;16.70;78.80;;;;;;4913789;29;20103;-86
2021/07/02 00:03:20;;;;;;;8.05;4.35;;;16.70;78.90;;;;;;4914143;29;20376;-88
2021/07/02 00:05:46;;;;;;;10.45;6.75;;;16.60;78.90;;;;;;4916383;29;20666;-88
2021/07/02 00:08:11;;;;;;;13.38;7.45;;;16.60;79.10;;;;;;4916652;29;20036;-88
2021/07/02 00:10:37;;;;;;;10.82;6.05;;;16.50;79.40;;;;;;4913947;29;20052;-86
2021/07/02 00:13:03;;;;;;;8.00;5.35;;;16.50;79.50;;;;;;4915125;29;20019;-87
2021/07/02 00:15:28;;;;;;;9.13;4.50;;;16.50;79.60;;;;;;4914505;29;20060;-87
2021/07/02 00:17:54;;;;;;;9.18;4.55;;;16.50;79.50;;;;;;4914573;29;20408;-87
2021/07/02 00:20:19;;;;;;;8.02;4.80;;;16.60;79.50;;;;;;4914838;29;20036;-88
2021/07/02 00:22:45;;;;;;;5.55;3.50;;;16.60;79.40;;;;;;4915850;29;20024;-88
2021/07/02 00:25:11;;;;;;;8.32;4.88;;;16.70;79.50;;;;;;4916447;29;20024;-88
2021/07/02 00:27:37;;;;;;;8.50;4.80;;;16.70;79.50;;;;;;4916145;29;20111;-88
2021/07/02 00:30:04;;;;;;;9.32;5.35;;;16.70;79.50;;;;;;4905289;29;20135;-87
2021/07/02 00:32:30;;;;;;;6.30;4.18;;;16.70;79.60;;;;;;4896904;29;20107;-88
2021/07/02 00:34:55;;;;;;;7.65;5.10;;;16.70;79.60;;;;;;4898206;29;20057;-88
2021/07/02 00:37:21;;;;;;;6.97;4.85;;;16.70;79.60;;;;;;4897321;29;20540;-87
2021/07/02 00:39:46;;;;;;;7.45;4.15;;;16.70;79.60;;;;;;4897310;29;20035;-88
2021/07/02 00:42:12;;;;;;;7.70;4.65;;;16.70;79.70;;;;;;4896596;29;20031;-88
2021/07/02 00:44:47;;;;;;;5.70;4.15;;;16.70;79.60;;;;;;4897356;29;20025;-88
2021/07/02 00:47:14;;;;;;;9.85;4.90;;;16.80;79.80;;;;;;4896051;29;20036;-88
2021/07/02 00:49:40;;;;;;;6.32;4.30;;;16.70;79.60;;;;;;4897324;29;20104;-88
2021/07/02 00:52:08;;;;;;;7.13;4.63;;;16.80;79.70;;;;;;4902788;29;20032;-88
2021/07/02 00:54:35;;;;;;;7.10;4.75;;;16.80;79.60;;;;;;4916050;29;20103;-89
2021/07/02 00:57:03;;;;;;;8.40;4.88;;;16.80;79.70;;;;;;4916281;29;20039;-88
2021/07/02 00:59:29;;;;;;;5.10;3.53;;;16.80;79.70;;;;;;4916425;29;20027;-89
2021/07/02 01:01:55;;;;;;;5.85;3.55;;;16.70;79.60;;;;;;4915777;29;20028;-89
2021/07/02 01:04:23;;;;;;;7.43;4.30;;;16.70;79.70;;;;;;4916222;29;20039;-89
2021/07/02 01:06:49;;;;;;;8.02;4.38;;;16.80;79.80;;;;;;4915891;29;20024;-88
2021/07/02 01:09:15;;;;;;;8.18;5.05;;;16.80;79.70;;;;;;4915543;29;20044;-88
2021/07/02 01:11:41;;;;;;;9.82;5.88;;;16.70;79.60;;;;;;4913901;29;20119;-87
2021/07/02 01:14:06;;;;;;;8.18;5.38;;;16.70;79.70;;;;;;4915695;29;20095;-88
2021/07/02 01:16:32;;;;;;;6.53;4.07;;;16.70;79.80;;;;;;4915488;29;20028;-87
2021/07/02 01:18:58;;;;;;;6.47;4.10;;;16.70;79.80;;;;;;4915326;29;20028;-87
2021/07/02 01:21:23;;;;;;;10.95;5.18;;;16.60;79.80;;;;;;4914892;29;20115;-88
2021/07/02 01:23:49;;;;;;;9.05;5.43;;;16.60;79.80;;;;;;4915531;29;20039;-88
2021/07/02 01:26:16;;;;;;;8.88;5.65;;;16.50;79.80;;;;;;4915290;29;20028;-87
2021/07/02 01:28:42;;;;;;;9.20;5.05;;;16.50;80.00;;;;;;4915615;29;20032;-88
2021/07/02 01:31:08;;;;;;;8.57;5.70;;;16.50;80.00;;;;;;4915659;29;20043;-87
2021/07/02 01:33:34;;;;;;;8.10;4.90;;;16.50;80.10;;;;;;4913982;29;20016;-88
2021/07/02 01:36:07;;;;;;;6.97;5.00;;;16.50;80.20;;;;;;4914506;29;20039;-88
2021/07/02 01:38:33;;;;;;;8.48;5.70;;;16.50;80.20;;;;;;4915297;29;20444;-87
2021/07/02 01:40:59;;;;;;;10.88;7.20;;;16.40;80.20;;;;;;4915604;29;20518;-88
2021/07/02 01:43:26;;;;;;;9.45;6.20;;;16.40;80.30;;;;;;4914917;29;20017;-88
2021/07/02 01:45:53;;;;;;;7.90;5.45;;;16.40;80.50;;;;;;4915445;29;20391;-88
2021/07/02 01:48:18;;;;;;;9.38;5.53;;;16.40;80.50;;;;;;4915007;29;20043;-89
2021/07/02 01:50:44;;;;;;;8.52;5.50;;;16.40;80.50;;;;;;4915046;29;20059;-88
2021/07/02 01:53:10;;;;;;;8.90;6.00;;;16.30;80.50;;;;;;4914385;29;20032;-86
2021/07/02 01:55:35;;;;;;;10.10;6.88;;;16.30;80.60;;;;;;4914743;29;20024;-87
2021/07/02 01:58:01;;;;;;;10.27;6.22;;;16.30;80.60;;;;;;4914802;29;20479;-86
2021/07/02 02:00:26;;;;;;;11.35;6.85;;;16.30;80.60;;;;;;4913401;29;20032;-86
2021/07/02 02:02:52;;;;;;;10.43;6.88;;;16.20;80.60;;;;;;4914162;29;20103;-87
2021/07/02 02:05:17;;;;;;;9.20;5.22;;;16.30;80.70;;;;;;4914971;29;20032;-87
2021/07/02 02:07:43;;;;;;;8.02;5.32;;;16.20;80.60;;;;;;4915070;29;20047;-88
2021/07/02 02:10:09;;;;;;;11.40;5.75;;;16.30;80.60;;;;;;4914690;29;20193;-87
2021/07/02 02:12:35;;;;;;;11.75;8.38;;;16.30;80.60;;;;;;4913810;29;20024;-87
2021/07/02 02:15:01;;;;;;;11.88;7.32;;;16.20;80.50;;;;;;4914741;29;20076;-87
2021/07/02 02:17:26;;;;;;;7.72;5.45;;;16.20;80.60;;;;;;4914641;29;20027;-88
2021/07/02 02:19:52;;;;;;;8.57;5.10;;;16.20;80.70;;;;;;4914920;29;20118;-87
2021/07/02 02:22:17;;;;;;;9.75;4.72;;;16.20;80.60;;;;;;4914395;29;20125;-89
2021/07/02 02:24:43;;;;;;;7.65;4.90;;;16.20;80.50;;;;;;4914457;29;20080;-89
2021/07/02 02:27:09;;;;;;;11.13;6.25;;;16.30;80.60;;;;;;4915061;29;20028;-88
2021/07/02 02:29:35;;;;;;;7.00;4.65;;;16.30;80.50;;;;;;4913531;29;20099;-89
2021/07/02 02:32:01;;;;;;;9.93;6.05;;;16.20;80.40;;;;;;4914243;29;20039;-89
2021/07/02 02:34:26;;;;;;;6.82;4.90;;;16.20;80.40;;;;;;4914915;29;20020;-89
2021/07/02 02:36:52;;;;;;;7.63;5.43;;;16.20;80.40;;;;;;4914686;29;20024;-89
2021/07/02 02:39:17;;;;;;;13.48;7.10;;;16.20;80.40;;;;;;4915143;29;20020;-91
2021/07/02 02:41:43;;;;;;;7.97;5.70;;;16.20;80.40;;;;;;4910357;29;20172;-87
2021/07/02 02:44:09;;;;;;;9.40;5.43;;;16.20;80.40;;;;;;4900838;29;20036;-87
2021/07/02 02:46:35;;;;;;;11.07;6.45;;;16.20;80.40;;;;;;4912601;29;20468;-88
2021/07/02 02:49:00;;;;;;;8.18;5.70;;;16.20;80.30;;;;;;4913257;29;20024;-89
2021/07/02 02:51:26;;;;;;;9.95;5.85;;;16.10;80.40;;;;;;4913961;29;20020;-89
2021/07/02 02:53:52;;;;;;;6.65;4.78;;;16.10;80.40;;;;;;4914634;29;20033;-88
2021/07/02 02:56:17;;;;;;;10.13;5.50;;;16.20;80.50;;;;;;4914455;29;20031;-88
2021/07/02 02:58:43;;;;;;;8.90;5.25;;;16.20;80.40;;;;;;4914071;29;20531;-90
2021/07/02 03:01:09;;;;;;;8.85;5.32;;;16.10;80.40;;;;;;4899873;29;20055;-88
2021/07/02 03:03:34;;;;;;;8.23;4.97;;;16.20;80.40;;;;;;4895221;29;20398;-87
2021/07/02 03:06:00;;;;;;;8.68;4.75;;;16.20;80.40;;;;;;4895162;29;20037;-87
2021/07/02 03:08:25;;;;;;;8.27;5.10;;;16.20;80.30;;;;;;4895476;29;20155;-88
2021/07/02 03:10:51;;;;;;;8.93;5.65;;;16.20;80.30;;;;;;4895486;29;20049;-88
2021/07/02 03:13:17;;;;;;;7.45;3.90;;;16.20;80.20;;;;;;4912861;29;20056;-88
2021/07/02 03:15:42;;;;;;;7.82;5.30;;;16.10;80.20;;;;;;4914296;29;20073;-88
2021/07/02 03:18:08;;;;;;;9.70;5.97;;;16.10;80.30;;;;;;4914365;29;20024;-89
2021/07/02 03:20:34;;;;;;;10.55;6.40;;;16.00;80.30;;;;;;4912933;29;20423;-87
2021/07/02 03:22:59;;;;;;;6.90;4.95;;;16.00;80.30;;;;;;4913645;29;20031;-88
2021/07/02 03:25:25;;;;;;;9.15;5.78;;;16.00;80.40;;;;;;4912908;29;20036;-89
2021/07/02 03:27:50;;;;;;;10.68;4.72;;;15.90;80.40;;;;;;4907786;29;20072;-88
2021/07/02 03:30:16;;;;;;;8.13;4.88;;;15.90;80.50;;;;;;4893503;29;20044;-87
2021/07/02 03:32:42;;;;;;;7.45;4.95;;;15.90;80.50;;;;;;4895511;29;20035;-87
2021/07/02 03:35:09;;;;;;;8.05;5.03;;;15.90;80.50;;;;;;4913830;29;20036;-88
2021/07/02 03:37:35;;;;;;;10.43;6.40;;;15.90;80.60;;;;;;4917128;29;20118;-87
2021/07/02 03:40:02;;;;;;;11.70;6.45;;;15.90;80.60;;;;;;4917221;29;20175;-88
2021/07/02 03:42:28;;;;;;;13.02;9.15;;;15.80;80.60;;;;;;4916373;29;20052;-88
2021/07/02 03:44:53;;;;;;;9.98;7.30;;;15.70;80.80;;;;;;4914989;29;20115;-88
2021/07/02 03:47:19;;;;;;;11.57;6.22;;;15.60;81.00;;;;;;4897668;29;20061;-88
2021/07/02 03:49:45;;;;;;;14.45;8.10;;;15.60;81.20;;;;;;4897750;29;20033;-87
2021/07/02 03:52:10;;;;;;;11.25;7.90;;;15.60;81.30;;;;;;4897721;29;20500;-87
2021/07/02 03:54:36;;;;;;;11.60;7.65;;;15.50;81.50;;;;;;4897755;29;20033;-88
2021/07/02 03:57:11;;;;;;;10.25;5.90;;;15.50;81.60;;;;;;4898225;29;20108;-87
2021/07/02 03:59:48;;;;;;;11.20;6.53;;;15.60;81.70;;;;;;4898250;29;20042;-88
2021/07/02 04:02:14;;;;;;;11.80;6.63;;;15.50;81.70;;;;;;4897719;29;20461;-88
2021/07/02 04:04:40;;;;;;;7.57;5.32;;;15.60;81.70;;;;;;4912248;29;20024;-87
2021/07/02 04:07:08;;;;;;;11.25;6.53;;;15.60;81.70;;;;;;4898837;29;20025;-91
2021/07/02 04:09:34;;;;;;;12.45;7.82;;;15.70;81.60;;;;;;4898737;29;20032;-90
2021/07/02 04:12:00;;;;;;;17.50;9.40;;;15.60;81.60;;;;;;4898218;29;20095;-89
2021/07/02 04:14:27;;;;;;;11.32;7.50;;;15.60;81.60;;;;;;4898321;29;20024;-89
2021/07/02 04:16:54;;;;;;;9.68;6.43;;;15.60;81.70;;;;;;4907182;29;20436;-89
2021/07/02 04:19:19;;;;;;;11.35;6.93;;;15.60;81.60;;;;;;4916811;29;20535;-89
2021/07/02 04:21:45;;;;;;;9.43;5.97;;;15.70;81.60;;;;;;4916230;29;20024;-89
2021/07/02 04:24:11;;;;;;;10.90;6.03;;;15.70;81.50;;;;;;4912663;29;20084;-89
2021/07/02 04:26:36;;;;;;;10.75;6.20;;;15.70;81.40;;;;;;4914810;29;20084;-88
2021/07/02 04:29:02;;;;;;;11.45;7.43;;;15.80;81.30;;;;;;4916691;29;20032;-88
2021/07/02 04:31:28;;;;;;;11.60;7.38;;;15.80;81.20;;;;;;4914674;29;20115;-88
2021/07/02 04:33:53;;;;;;;11.73;7.55;;;15.80;81.20;;;;;;4915626;29;20016;-87
2021/07/02 04:36:19;;;;;;;14.20;8.57;;;15.80;81.20;;;;;;4909967;29;20036;-87
2021/07/02 04:38:44;;;;;;;13.63;7.75;;;15.80;81.20;;;;;;4910437;29;20140;-88
2021/07/02 04:41:10;;;;;;;9.63;6.75;;;15.80;81.20;;;;;;4915988;29;20043;-88
2021/07/02 04:43:36;;;;;;;12.85;7.57;;;15.80;81.10;;;;;;4913987;29;20036;-88
2021/07/02 04:46:02;;;;;;;8.40;6.05;;;15.90;81.00;;;;;;4915583;29;20026;-88
2021/07/02 04:48:27;;;;;;;9.57;6.07;;;15.90;80.90;;;;;;4916571;29;20020;-89
2021/07/02 04:50:53;;;;;;;8.15;5.18;;;16.00;80.80;;;;;;4914890;29;20062;-87
2021/07/02 04:53:20;;;;;;;11.50;6.75;;;16.00;80.60;;;;;;4916070;29;20059;-88
2021/07/02 04:55:45;;;;;;;10.23;6.70;;;16.10;80.60;;;;;;4911528;29;20511;-85
2021/07/02 04:58:11;;;;;;;10.23;6.25;;;16.10;80.50;;;;;;4913995;29;20028;-87
2021/07/02 05:00:38;;;;;;;11.32;6.90;;;16.10;80.40;;;;;;4908234;29;20028;-86
2021/07/02 05:03:04;;;;;;;10.32;7.10;;;16.10;80.30;;;;;;4913652;29;20039;-87
2021/07/02 05:05:30;;;;;;;9.40;6.07;;;16.10;80.30;;;;;;4914592;29;20107;-87
2021/07/02 05:07:55;;;;;;;11.90;7.25;;;16.10;80.20;;;;;;4908675;29;20099;-86
2021/07/02 05:10:21;;;;;;;10.68;6.28;;;16.20;80.10;;;;;;4915746;29;20455;-88
2021/07/02 05:12:46;;;;;;;8.32;5.75;;;16.20;80.10;;;;;;4915466;29;20028;-90
2021/07/02 05:15:12;;;;;;;14.43;9.52;;;16.20;80.00;;;;;;4912893;29;20032;-90
2021/07/02 05:17:38;;;;;;;15.63;9.73;;;16.20;79.80;;;;;;4916219;29;20063;-89
2021/07/02 05:20:04;;;;;;;12.75;7.53;;;16.10;79.80;;;;;;4916551;29;20024;-90
2021/07/02 05:22:34;;;;;;;15.73;7.90;;;16.10;79.90;;;;;;4914529;29;20043;-90
2021/07/02 05:25:00;;;;;;;11.63;7.15;;;16.10;79.80;;;;;;4916035;29;20095;-90
2021/07/02 05:27:26;;;;;;;11.98;7.88;;;16.20;79.80;;;;;;4916094;29;20036;-90
2021/07/02 05:29:52;;;;;;;12.35;7.57;;;16.20;79.60;;;;;;4894754;29;20064;-95
2021/07/02 05:32:17;;;;;;;11.20;7.25;;;16.20;79.60;;;;;;4896781;29;20028;-91
2021/07/02 05:34:43;;;;;;;11.02;7.00;;;16.20;79.50;;;;;;4906186;29;20052;-92
2021/07/02 05:37:08;;;;;;;10.43;6.38;;;16.20;79.50;;;;;;4916617;29;20491;-90
2021/07/02 05:39:34;;;;;;;11.45;7.43;;;16.20;79.50;;;;;;4913663;29;20538;-89
2021/07/02 05:41:59;;;;;;;7.68;5.32;;;16.20;79.40;;;;;;4915339;29;20028;-89
2021/07/02 05:44:25;;;;;;;9.23;6.63;;;16.50;79.30;;;;;;4915556;29;20032;-90
2021/07/02 05:46:51;;;;;;;9.15;5.30;;;17.20;78.30;;;;;;4916272;29;20431;-91
2021/07/02 05:49:17;;;;;;;10.13;6.10;;;17.90;76.70;;;;;;4916990;29;20083;-92
2021/07/02 05:51:43;;;;;;;9.93;6.93;;;18.40;75.40;;;;;;4908409;29;20058;-88
2021/07/02 05:54:09;;;;;;;8.27;5.28;;;18.80;74.50;;;;;;4912440;29;20441;-91
2021/07/02 05:56:35;;;;;;;13.30;8.73;;;19.10;73.90;;;;;;4913995;29;20032;-91
2021/07/02 05:59:01;;;;;;;11.10;7.53;;;19.10;72.70;;;;;;4915640;29;20032;-90
2021/07/02 06:01:30;;;;;;;12.23;7.45;;;19.00;72.80;;;;;;4913257;29;20391;-90
2021/07/02 06:03:56;;;;;;;13.35;9.38;;;19.20;72.80;;;;;;4914945;29;20087;-91
2021/07/02 06:06:22;;;;;;;11.85;7.82;;;19.00;72.30;;;;;;4914605;29;20032;-93
2021/07/02 06:08:50;;;;;;;13.35;9.40;;;19.00;72.40;;;;;;4914704;29;20025;-89
2021/07/02 06:11:15;;;;;;;15.38;10.40;;;19.00;71.90;;;;;;4917414;29;20024;-89
2021/07/02 06:13:42;;;;;;;12.45;7.68;;;18.80;71.00;;;;;;4913284;29;20353;-89
2021/07/02 06:16:08;;;;;;;11.68;7.55;;;18.80;71.80;;;;;;4913443;29;20043;-89
2021/07/02 06:18:34;;;;;;;13.70;9.02;;;18.90;71.70;;;;;;4914629;29;20016;-89
2021/07/02 06:21:00;;;;;;;10.32;6.53;;;18.90;71.40;;;;;;4914740;29;20019;-91
2021/07/02 06:23:33;;;;;;;9.50;6.43;;;19.10;71.80;;;;;;4912339;29;20016;-90
2021/07/02 06:25:59;;;;;;;8.27;5.85;;;19.10;71.60;;;;;;4914220;29;20020;-90
2021/07/02 06:28:24;;;;;;;11.48;6.63;;;19.30;71.50;;;;;;4914800;29;20497;-89
2021/07/02 06:30:50;;;;;;;9.68;6.40;;;19.30;71.20;;;;;;4913049;29;20124;-90
2021/07/02 06:33:19;;;;;;;10.35;7.13;;;19.30;70.60;;;;;;4912665;29;20047;-94
2021/07/02 06:35:45;;;;;;;10.90;7.97;;;19.50;70.70;;;;;;4920114;29;20040;-96
2021/07/02 06:38:11;;;;;;;10.50;6.75;;;19.70;70.20;;;;;;4915554;29;20404;-96
2021/07/02 06:40:36;;;;;;;7.75;5.43;;;19.70;69.90;;;;;;4919102;29;20039;-96
2021/07/02 06:43:02;;;;;;;10.52;7.22;;;20.00;70.40;;;;;;4915278;29;20020;-95
2021/07/02 06:45:28;;;;;;;9.73;6.90;;;20.20;68.80;;;;;;4917339;29;20024;-96
2021/07/02 06:48:05;;;;;;;11.93;7.88;;;20.30;68.80;;;;;;4918851;29;20031;-95
2021/07/02 06:50:33;;;;;;;9.25;6.90;;;20.40;67.90;;;;;;4914595;29;20047;-95
2021/07/02 06:53:00;;;;;;;6.82;4.80;;;20.50;67.80;;;;;;4913894;29;20087;-94
2021/07/02 06:55:36;;;;;;;11.18;6.75;;;20.60;67.70;;;;;;4927239;29;20104;-96
2021/07/02 06:58:04;;;;;;;9.55;6.45;;;20.70;67.50;;;;;;4934484;29;20081;-96
2021/07/02 07:00:30;;;;;;;11.77;6.05;;;20.70;67.50;;;;;;4918883;29;20079;-96
2021/07/02 07:02:56;;;;;;;6.50;4.93;;;20.70;67.20;;;;;;4932653;29;20028;-96
2021/07/02 07:05:22;;;;;;;8.40;5.63;;;20.70;67.40;;;;;;4929030;29;20020;-94
2021/07/02 07:07:48;;;;;;;10.65;6.53;;;20.90;67.40;;;;;;4917814;29;20028;-93
2021/07/02 07:10:14;;;;;;;9.40;6.60;;;21.00;67.00;;;;;;4918947;29;20063;-94
2021/07/02 07:12:40;;;;;;;10.30;7.03;;;21.10;66.70;;;;;;4926263;29;20031;-96
2021/07/02 07:15:06;;;;;;;8.25;5.47;;;21.10;66.00;;;;;;4927858;29;20024;-92
2021/07/02 07:17:32;;;;;;;9.95;6.95;;;21.30;66.30;;;;;;4938294;29;20009;-95
2021/07/02 07:19:58;;;;;;;9.82;6.10;;;21.40;65.50;;;;;;4933368;29;20562;-94
2021/07/02 07:22:24;;;;;;;7.85;5.30;;;21.60;65.50;;;;;;4915542;29;20024;-94
2021/07/02 07:24:49;;;;;;;7.57;5.40;;;21.80;65.20;;;;;;4919650;29;20016;-95
2021/07/02 07:27:15;;;;;;;7.75;5.53;;;21.90;64.50;;;;;;4920444;29;20020;-95
2021/07/02 07:29:41;;;;;;;10.77;7.13;;;22.20;65.10;;;;;;4918021;29;20036;-94
2021/07/02 07:32:07;;;;;;;10.00;6.55;;;22.20;63.00;;;;;;4917680;29;20040;-96
2021/07/02 07:37:10;;;;;;;8.32;6.47;;;22.10;63.30;;;;;;4919207;29;20039;-95
2021/07/02 07:39:36;;;;;;;10.13;6.25;;;22.20;62.90;;;;;;4918209;29;20044;-95
2021/07/02 07:42:01;;;;;;;7.10;4.75;;;21.90;62.40;;;;;;4918718;29;20051;-95
2021/07/02 07:44:27;;;;;;;9.13;5.45;;;22.00;62.90;;;;;;4919584;29;20027;-96
2021/07/02 07:46:55;;;;;;;8.27;5.35;;;22.00;63.20;;;;;;4918951;29;20058;-95
2021/07/02 07:49:20;;;;;;;7.30;5.63;;;21.90;63.50;;;;;;4918134;29;20028;-94
2021/07/02 07:51:54;;;;;;;7.65;5.15;;;21.80;63.90;;;;;;4918923;29;20024;-95
2021/07/02 07:54:21;;;;;;;7.32;5.10;;;21.70;64.10;;;;;;4917812;29;20119;-92
2021/07/02 07:56:53;;;;;;;8.88;6.20;;;21.60;64.50;;;;;;4918303;29;20542;-92
2021/07/02 07:59:22;;;;;;;9.85;5.75;;;21.60;64.60;;;;;;4915781;29;20393;-90
2021/07/02 08:01:48;;;;;;;7.85;5.18;;;21.60;64.50;;;;;;4917188;29;20020;-94
2021/07/02 08:04:14;;;;;;;8.18;5.63;;;21.70;64.70;;;;;;4932443;29;20028;-96
2021/07/02 08:06:43;;;;;;;6.18;4.10;;;21.70;64.30;;;;;;4930365;29;20039;-96
2021/07/02 08:09:16;;;;;;;6.50;4.72;;;21.80;64.30;;;;;;4933079;29;20056;-96
2021/07/02 08:11:42;;;;;;;8.70;5.60;;;21.70;64.40;;;;;;4934998;29;20105;-96
2021/07/02 08:14:09;;;;;;;7.25;5.00;;;21.60;64.60;;;;;;4929256;29;20024;-95
2021/07/02 08:16:35;;;;;;;6.22;4.70;;;21.70;64.50;;;;;;4921183;29;20039;-95
2021/07/02 08:19:01;;;;;;;9.20;6.45;;;21.60;64.50;;;;;;4917941;29;20028;-94
2021/07/02 08:21:27;;;;;;;8.80;6.80;;;21.60;65.00;;;;;;4917038;29;20036;-95
2021/07/02 08:23:53;;;;;;;11.48;7.40;;;21.70;64.10;;;;;;4918040;29;20432;-95
2021/07/02 08:26:19;;;;;;;10.50;7.25;;;21.70;64.00;;;;;;4926844;29;20036;-93
2021/07/02 08:31:33;;;;;;;9.70;6.65;;;21.50;64.00;;;;;;4915485;29;20059;-91
2021/07/02 08:33:59;;;;;;;9.25;6.85;;;21.60;63.90;;;;;;4914517;29;20024;-90
2021/07/02 08:36:25;;;;;;;9.30;6.03;;;21.70;63.50;;;;;;4910195;29;20040;-93
2021/07/02 08:38:51;;;;;;;7.95;6.07;;;21.90;63.40;;;;;;4916978;29;20031;-90
2021/07/02 08:41:16;;;;;;;9.10;6.80;;;22.10;63.10;;;;;;4915870;29;20503;-92
2021/07/02 08:43:46;;;;;;;9.90;6.25;;;22.30;62.50;;;;;;4910720;29;20029;-94
2021/07/02 08:46:16;;;;;;;6.35;4.38;;;22.50;62.30;;;;;;4911850;29;20048;-92
2021/07/02 08:48:46;;;;;;;9.57;6.80;;;22.70;62.30;;;;;;4916335;29;20028;-95
2021/07/02 08:51:12;;;;;;;6.50;4.88;;;22.80;61.80;;;;;;4917622;29;20043;-93
2021/07/02 08:53:38;;;;;;;6.53;4.70;;;22.80;61.60;;;;;;4915141;29;20484;-92
2021/07/02 08:56:04;;;;;;;9.75;6.95;;;22.90;61.50;;;;;;4900665;29;20056;-92
2021/07/02 08:58:31;;;;;;;8.45;6.28;;;22.90;60.70;;;;;;4931928;29;20032;-93
2021/07/02 09:00:57;;;;;;;7.35;5.32;;;22.90;60.70;;;;;;4924550;29;20039;-92
2021/07/02 09:03:28;;;;;;;6.57;4.80;;;22.90;61.10;;;;;;4915027;29;20021;-92
2021/07/02 09:05:55;;;;;;;8.85;6.75;;;22.90;61.50;;;;;;4921813;29;20028;-93
2021/07/02 09:08:22;;;;;;;10.52;8.25;;;22.70;61.60;;;;;;4920979;29;20028;-93
2021/07/02 09:10:48;;;;;;;8.32;5.95;;;22.70;61.70;;;;;;4938114;29;20036;-93
2021/07/02 09:13:16;;;;;;;9.90;6.55;;;22.60;61.90;;;;;;4920119;29;20036;-92
2021/07/02 09:15:46;;;;;;;10.50;6.63;;;22.60;61.90;;;;;;4921052;29;20546;-91
2021/07/02 09:18:13;;;;;;;12.43;8.77;;;22.60;62.10;;;;;;4917326;29;20070;-92
2021/07/02 09:20:41;;;;;;;10.82;8.88;;;22.50;61.50;;;;;;4918058;29;20035;-93
2021/07/02 09:23:08;;;;;;;8.18;6.20;;;22.40;61.70;;;;;;4915596;29;20396;-90
2021/07/02 09:25:40;;;;;;;10.25;7.60;;;22.40;62.40;;;;;;4915869;29;20020;-93
2021/07/02 09:28:06;;;;;;;8.82;5.90;;;22.40;62.30;;;;;;4916200;29;20039;-93
2021/07/02 09:30:34;;;;;;;11.25;7.13;;;22.30;62.50;;;;;;4917135;29;20048;-92
2021/07/02 09:33:06;;;;;;;9.25;6.47;;;22.20;62.40;;;;;;4915856;29;20028;-93
2021/07/02 09:35:48;;;;;;;9.40;6.22;;;22.20;62.90;;;;;;4917064;29;20125;-92
2021/07/02 09:38:16;;;;;;;;;;;22.50;62.90;;;;;;4916830;29;20111;-91
2021/07/02 09:40:43;;;;;;;6.47;5.15;;;22.60;62.70;;;;;;4915544;29;19994;-92
2021/07/02 09:43:13;;;;;;;7.03;5.10;;;22.70;62.50;;;;;;4914467;29;20380;-90
2021/07/02 09:45:54;;;;;;;6.78;5.28;;;22.80;62.10;;;;;;4914649;29;20381;-92
2021/07/02 09:48:24;;;;;;;7.18;4.47;;;22.70;61.90;;;;;;4914940;29;20079;-92
2021/07/02 09:50:51;;;;;;;6.00;4.88;;;22.70;61.80;;;;;;4911253;29;20063;-92
2021/07/02 09:53:24;;;;;;;6.32;4.35;;;22.70;61.60;;;;;;4914698;29;20051;-92
2021/07/02 09:55:58;;;;;;;8.15;5.95;;;22.60;61.80;;;;;;4914749;29;20032;-91
2021/07/02 09:58:27;;;;;;;6.20;4.65;;;22.60;61.80;;;;;;4915124;29;20056;-91
2021/07/02 10:00:56;;;;;;;6.85;4.88;;;22.60;62.10;;;;;;4915858;29;20024;-90
2021/07/02 10:03:31;;;;;;;6.95;5.20;;;22.60;62.50;;;;;;4915550;29;20224;-90
2021/07/02 10:06:05;;;;;;;6.55;4.50;;;22.60;62.60;;;;;;4914005;29;20035;-90
2021/07/02 10:08:36;;;;;;;6.65;4.95;;;22.60;62.80;;;;;;4913673;29;20047;-91
2021/07/02 10:11:05;;;;;;;7.10;5.28;;;22.70;62.90;;;;;;4913339;29;20028;-90
2021/07/02 10:13:36;;;;;;;9.15;6.30;;;22.60;62.70;;;;;;4912791;29;20727;-90
2021/07/02 10:16:06;;;;;;;8.85;5.80;;;22.60;62.70;;;;;;4913541;29;20382;-92
2021/07/02 10:18:36;;;;;;;9.98;6.65;;;22.40;62.90;;;;;;4916376;29;20028;-93
2021/07/02 10:21:03;;;;;;;8.75;6.57;;;22.30;63.10;;;;;;4914547;29;20079;-91
2021/07/02 10:23:33;;;;;;;19.55;9.60;;;22.10;63.40;;;;;;4914532;29;20024;-92
2021/07/02 10:26:00;;;;;;;9.68;7.32;;;21.90;63.80;;;;;;4916078;29;20078;-92
2021/07/02 10:28:28;;;;;;;9.32;6.55;;;21.80;64.00;;;;;;4918849;29;20526;-93
2021/07/02 10:30:54;;;;;;;7.55;5.60;;;21.90;64.10;;;;;;4914831;29;20036;-92
2021/07/02 10:33:26;;;;;;;9.52;7.10;;;21.80;64.00;;;;;;4912886;29;20476;-92
2021/07/02 10:36:04;;;;;;;9.02;6.47;;;21.80;64.00;;;;;;4914834;29;20119;-92
2021/07/02 10:38:41;;;;;;;10.35;7.60;;;21.80;64.10;;;;;;4913895;29;20076;-91
2021/07/02 10:41:26;;;;;;;11.45;7.60;;;21.80;64.20;;;;;;4914900;29;20025;-91
2021/07/02 10:44:11;;;;;;;6.85;5.32;;;21.70;64.30;;;;;;4908648;29;20050;-90
2021/07/02 10:46:37;;;;;;;9.07;6.45;;;21.80;64.40;;;;;;4907465;29;20039;-91
2021/07/02 10:49:12;;;;;;;9.48;7.03;;;21.80;64.30;;;;;;4918349;29;20119;-91
2021/07/02 10:51:42;;;;;;;10.48;7.60;;;21.70;64.20;;;;;;4918076;29;20060;-89
2021/07/02 10:54:13;;;;;;;11.38;7.60;;;21.70;64.40;;;;;;4918401;29;20032;-89
2021/07/02 10:56:46;;;;;;;9.15;6.47;;;21.60;64.50;;;;;;4916999;29;20028;-87
2021/07/02 10:59:12;;;;;;;8.38;5.90;;;21.60;64.90;;;;;;4917654;29;20091;-88
2021/07/02 11:01:57;;;;;;;9.20;6.68;;;21.60;65.60;;;;;;4916147;29;20038;-87
2021/07/02 11:04:33;;;;;;;9.35;6.43;;;21.50;65.20;;;;;;4917284;29;20036;-91
2021/07/02 11:07:13;;;;;;;7.43;5.55;;;21.50;65.40;;;;;;4916877;29;20573;-90
2021/07/02 11:12:22;;;;;;;9.30;6.68;;;21.70;65.50;;;;;;4915375;29;20064;-89
2021/07/02 11:14:54;;;;;;;8.57;6.03;;;21.90;65.20;;;;;;4913577;29;20115;-88
2021/07/02 11:17:36;;;;;;;7.10;5.43;;;22.10;65.00;;;;;;4914585;29;20031;-89
2021/07/02 11:20:04;;;;;;;8.80;6.32;;;22.10;64.80;;;;;;4915898;29;20479;-90
2021/07/02 11:22:58;;;;;;;8.00;6.43;;;22.10;64.60;;;;;;4915609;29;20252;-88
2021/07/02 11:26:19;;;;;;;5.40;4.28;;;22.00;64.50;;;;;;4889757;29;20091;-89
2021/07/02 11:28:44;;;;;;;7.82;5.50;;;22.00;64.60;;;;;;4909672;29;20032;-91
2021/07/02 11:31:11;;;;;;;8.02;6.13;;;21.90;64.70;;;;;;4911949;29;20038;-93
2021/07/02 11:33:37;;;;;;;10.30;7.30;;;21.90;64.80;;;;;;4917212;29;20020;-93
2021/07/02 11:36:02;;;;;;;8.23;5.90;;;21.80;64.80;;;;;;4917592;29;20032;-93
2021/07/02 11:38:31;;;;;;;8.90;6.47;;;21.80;65.10;;;;;;4916656;29;20075;-91
2021/07/02 11:41:05;;;;;;;9.60;6.20;;;21.80;65.30;;;;;;4918008;29;20112;-91
2021/07/02 11:43:31;;;;;;;7.65;5.47;;;21.90;65.40;;;;;;4916241;29;20052;-92
2021/07/02 11:46:00;;;;;;;8.45;5.70;;;22.00;65.10;;;;;;4917643;29;20402;-92
2021/07/02 11:48:28;;;;;;;6.88;4.70;;;22.10;65.00;;;;;;4916558;29;20059;-93
2021/07/02 11:50:57;;;;;;;8.20;5.95;;;22.10;64.90;;;;;;4916374;29;20035;-92
2021/07/02 11:53:37;;;;;;;7.20;5.15;;;22.00;65.60;;;;;;4916864;29;20026;-89
2021/07/02 11:56:25;;;;;;;9.15;6.72;;;22.00;64.90;;;;;;4917370;29;20036;-92
2021/07/02 11:59:00;;;;;;;7.03;5.32;;;21.80;65.10;;;;;;4901288;29;20024;-92
2021/07/02 12:01:28;;;;;;;9.75;6.90;;;21.90;65.40;;;;;;4917568;29;20024;-91
2021/07/02 12:03:57;;;;;;;8.65;6.18;;;21.70;65.30;;;;;;4918337;29;20322;-91
2021/07/02 12:06:28;;;;;;;7.80;5.93;;;21.70;65.50;;;;;;4916023;29;20020;-92
2021/07/02 12:09:05;;;;;;;9.65;7.00;;;21.70;65.60;;;;;;4914870;29;20031;-92
2021/07/02 12:11:54;;;;;;;8.45;5.75;;;21.60;65.80;;;;;;4912986;29;20047;-91
2021/07/02 12:14:35;;;;;;;6.72;4.82;;;21.50;66.10;;;;;;4905388;29;20043;-92
2021/07/02 12:17:02;;;;;;;7.97;5.70;;;21.50;66.20;;;;;;4909796;29;20020;-92
2021/07/02 12:19:33;;;;;;;6.82;4.97;;;21.40;66.20;;;;;;4916216;29;20024;-92
2021/07/02 12:22:09;;;;;;;8.27;5.18;;;21.50;66.30;;;;;;4916897;29;20052;-92
2021/07/02 12:24:46;;;;;;;7.45;5.70;;;21.60;66.30;;;;;;4913779;29;20020;-92
2021/07/02 12:27:20;;;;;;;10.00;6.50;;;21.80;66.10;;;;;;4911451;29;20021;-94
2021/07/02 12:29:51;;;;;;;7.60;5.18;;;21.80;65.80;;;;;;4916100;29;20033;-93
2021/07/02 12:32:17;;;;;;;7.65;5.28;;;21.80;65.90;;;;;;4916890;29;20028;-93
2021/07/02 12:34:48;;;;;;;6.03;4.70;;;21.70;65.90;;;;;;4916066;29;20067;-94
2021/07/02 12:37:19;;;;;;;6.50;4.28;;;21.80;66.00;;;;;;4916907;29;20055;-94
2021/07/02 12:39:56;;;;;;;7.68;4.10;;;21.80;66.00;;;;;;4916553;29;20067;-93
2021/07/02 12:42:31;;;;;;;5.72;4.47;;;21.90;66.00;;;;;;4915669;29;20032;-90
2021/07/02 12:45:05;;;;;;;5.47;4.03;;;21.90;66.00;;;;;;4911159;29;20471;-90
2021/07/02 12:47:32;;;;;;;4.80;3.78;;;21.80;66.00;;;;;;4916185;29;20054;-91
2021/07/02 12:50:02;;;;;;;5.03;3.90;;;21.90;66.00;;;;;;4914141;29;20123;-89
2021/07/02 12:55:14;;;;;;;5.28;3.90;;;22.20;65.60;;;;;;4913738;29;20138;-89
2021/07/02 12:57:41;;;;;;;6.30;5.00;;;22.30;65.40;;;;;;4912449;29;20095;-90